createdAt,value
2023-03-12T00:01:23.451Z,79.29
2023-03-12T00:03:52.196Z,80.01
2023-03-12T00:06:21.373Z,80.50
2023-03-12T00:08:49.917Z,81.79
2023-03-12T00:11:20.229Z,83.02
2023-03-12T00:13:53.784Z,83.78
2023-03-12T00:16:22.850Z,83.90
2023-03-12T00:18:53.968Z,83.80
2023-03-12T00:21:23.190Z,83.54
2023-03-12T00:23:52.358Z,83.45
2023-03-12T00:26:21.813Z,83.20
2023-03-12T00:28:50.829Z,82.73
2023-03-12T00:31:21.743Z,82.61
2023-03-12T00:33:50.687Z,82.36
2023-03-12T00:36:24.486Z,82.33
2023-03-12T00:38:53.274Z,82.09
2023-03-12T00:41:23.415Z,81.83
2023-03-12T00:43:52.811Z,81.64
2023-03-12T00:46:22.083Z,81.53
2023-03-12T00:48:50.384Z,81.54
2023-03-12T00:51:19.016Z,81.42
2023-03-12T00:53:47.343Z,81.23
2023-03-12T00:56:16.001Z,81.22
2023-03-12T00:58:44.339Z,81.24
2023-03-12T01:01:12.771Z,81.28
2023-03-12T01:03:41.068Z,81.51
2023-03-12T01:06:09.646Z,81.41
2023-03-12T01:08:38.396Z,81.54
2023-03-12T01:11:06.590Z,81.50
2023-03-12T01:13:34.780Z,81.75
2023-03-12T01:16:03.064Z,81.62
2023-03-12T01:18:31.347Z,81.60
2023-03-12T01:20:59.892Z,81.58
2023-03-12T01:23:28.510Z,81.48
2023-03-12T01:25:56.900Z,81.56
2023-03-12T01:28:26.242Z,81.69
2023-03-12T01:30:54.524Z,81.55
2023-03-12T01:33:23.092Z,81.55
2023-03-12T01:35:51.657Z,81.74
2023-03-12T01:38:21.030Z,81.79
2023-03-12T01:40:49.518Z,81.73
2023-03-12T01:43:31.527Z,81.44
2023-03-12T01:46:00.517Z,81.58
2023-03-12T01:49:01.580Z,81.82
2023-03-12T01:51:42.519Z,81.74
2023-03-12T01:54:17.129Z,81.90
2023-03-12T01:56:47.042Z,82.12
2023-03-12T01:59:27.957Z,82.83
2023-03-12T02:01:56.217Z,83.50
2023-03-12T02:04:27.264Z,83.74
2023-03-12T02:07:05.436Z,84.32
2023-03-12T02:09:36.337Z,84.97
2023-03-12T02:12:05.493Z,85.30
2023-03-12T02:14:34.204Z,85.91
2023-03-12T02:17:02.563Z,85.76
2023-03-12T02:20:08.205Z,85.97
2023-03-12T02:22:38.968Z,86.22
2023-03-12T02:25:22.224Z,86.51
2023-03-12T02:27:51.684Z,86.64
2023-03-12T02:30:21.306Z,86.62
2023-03-12T02:32:52.091Z,86.70
2023-03-12T02:35:20.442Z,87.04
2023-03-12T02:37:55.171Z,87.02
2023-03-12T02:40:30.165Z,86.99
2023-03-12T02:42:58.650Z,87.29
2023-03-12T02:45:27.616Z,87.76
2023-03-12T02:47:56.058Z,88.42
2023-03-12T02:50:24.358Z,89.06
2023-03-12T02:52:52.647Z,89.83
2023-03-12T02:55:20.957Z,90.66
2023-03-12T02:57:49.387Z,91.49
2023-03-12T03:00:18.412Z,91.73
2023-03-12T03:02:50.185Z,91.67
2023-03-12T03:05:20.616Z,92.18
2023-03-12T03:07:48.909Z,92.15
2023-03-12T03:10:17.718Z,91.47
2023-03-12T03:12:46.213Z,91.15
2023-03-12T03:15:14.771Z,91.23
2023-03-12T03:17:43.087Z,90.87
2023-03-12T03:20:12.138Z,90.64
2023-03-12T03:22:40.616Z,90.75
2023-03-12T03:25:10.751Z,90.42
2023-03-12T03:27:38.936Z,90.35
2023-03-12T03:30:08.105Z,90.24
2023-03-12T03:32:39.069Z,90.17
2023-03-12T03:35:08.011Z,90.22
2023-03-12T03:37:36.469Z,90.41
2023-03-12T03:40:05.978Z,90.21
2023-03-12T03:42:34.985Z,90.29
2023-03-12T03:45:03.704Z,90.08
2023-03-12T03:47:32.054Z,90.05
2023-03-12T03:50:00.438Z,90.18
2023-03-12T03:52:29.252Z,90.07
2023-03-12T03:54:59.509Z,90.12
2023-03-12T03:57:28.232Z,90.23
2023-03-12T04:00:00.904Z,90.10
2023-03-12T04:02:30.819Z,89.66
2023-03-12T04:05:00.212Z,89.47
2023-03-12T04:07:29.137Z,89.16
2023-03-12T04:09:58.354Z,88.95
2023-03-12T04:12:28.188Z,88.60
2023-03-12T04:14:56.431Z,88.26
2023-03-12T04:17:25.000Z,88.18
2023-03-12T04:19:53.533Z,87.84
2023-03-12T04:22:21.903Z,87.60
2023-03-12T04:24:50.525Z,87.08
2023-03-12T04:27:18.746Z,86.82
2023-03-12T04:29:47.047Z,86.70
2023-03-12T04:32:15.433Z,86.41
2023-03-12T04:34:43.778Z,86.17
2023-03-12T04:37:15.353Z,85.97
2023-03-12T04:39:44.390Z,85.63
2023-03-12T04:42:12.800Z,85.58
2023-03-12T04:44:41.945Z,85.20
2023-03-12T04:47:10.446Z,85.47
2023-03-12T04:49:39.820Z,84.96
2023-03-12T04:52:08.530Z,84.78
2023-03-12T04:54:37.584Z,84.75
2023-03-12T04:57:06.261Z,84.40
2023-03-12T04:59:34.494Z,84.40
2023-03-12T05:02:03.022Z,84.00
2023-03-12T05:04:33.627Z,83.99
2023-03-12T05:07:03.333Z,83.94
2023-03-12T05:09:31.959Z,83.49
2023-03-12T05:12:00.536Z,83.17
2023-03-12T05:14:28.822Z,83.13
2023-03-12T05:16:57.254Z,83.11
2023-03-12T05:19:25.566Z,82.96
2023-03-12T05:21:53.721Z,82.80
2023-03-12T05:24:22.658Z,82.60
2023-03-12T05:26:50.910Z,82.72
2023-03-12T05:29:22.250Z,82.43
2023-03-12T05:31:51.083Z,82.26
2023-03-12T05:34:19.529Z,82.38
2023-03-12T05:36:48.211Z,82.38
2023-03-12T05:39:20.375Z,82.38
2023-03-12T05:41:49.022Z,82.30
2023-03-12T05:44:19.071Z,82.17
2023-03-12T05:46:51.258Z,81.89
2023-03-12T05:49:20.438Z,81.91
2023-03-12T05:51:50.228Z,81.93
2023-03-12T05:54:18.942Z,81.56
2023-03-12T05:56:48.490Z,81.10
2023-03-12T05:59:16.883Z,81.12
2023-03-12T06:01:45.322Z,80.92
2023-03-12T06:04:13.710Z,81.02
2023-03-12T06:06:42.412Z,80.81
2023-03-12T06:09:10.690Z,80.77
2023-03-12T06:11:39.201Z,80.76
2023-03-12T06:14:07.561Z,81.55
2023-03-12T06:16:37.489Z,82.62
2023-03-12T06:19:07.784Z,83.19
2023-03-12T06:21:36.458Z,83.99
2023-03-12T06:24:07.027Z,84.89
2023-03-12T06:26:43.804Z,86.10
2023-03-12T06:29:12.118Z,85.72
2023-03-12T06:31:42.293Z,86.29
2023-03-12T06:34:10.869Z,86.35
2023-03-12T06:36:39.044Z,86.19
2023-03-12T06:39:08.328Z,85.98
2023-03-12T06:41:37.055Z,85.24
2023-03-12T06:44:06.524Z,84.42
2023-03-12T06:46:35.120Z,83.74
2023-03-12T06:49:03.404Z,83.22
2023-03-12T06:51:31.619Z,82.11
2023-03-12T06:54:02.789Z,81.76
2023-03-12T06:56:31.659Z,81.03
2023-03-12T06:59:00.051Z,81.02
2023-03-12T07:01:28.277Z,80.38
2023-03-12T07:03:56.542Z,80.53
2023-03-12T07:06:25.712Z,80.54
2023-03-12T07:08:54.431Z,80.81
2023-03-12T07:11:22.835Z,81.41
2023-03-12T07:13:51.783Z,81.39
2023-03-12T07:16:20.182Z,81.82
2023-03-12T07:18:48.651Z,81.87
2023-03-12T07:21:22.853Z,83.67
2023-03-12T07:23:52.133Z,87.28
2023-03-12T07:26:21.380Z,89.80
2023-03-12T07:28:49.957Z,90.45
2023-03-12T07:31:18.431Z,91.33
2023-03-12T07:33:47.004Z,92.33
2023-03-12T07:36:15.416Z,91.94
2023-03-12T07:38:43.872Z,91.98
2023-03-12T07:41:12.409Z,91.66
2023-03-12T07:43:40.747Z,91.16
2023-03-12T07:46:09.281Z,90.48
2023-03-12T07:48:37.756Z,90.28
2023-03-12T07:51:07.167Z,89.86
2023-03-12T07:53:35.531Z,88.84
2023-03-12T07:56:03.927Z,88.18
2023-03-12T07:58:32.316Z,87.11
2023-03-12T08:01:00.799Z,86.14
2023-03-12T08:03:30.850Z,85.41
2023-03-12T08:06:01.585Z,84.02
2023-03-12T08:08:31.431Z,83.92
2023-03-12T08:11:00.604Z,83.57
2023-03-12T08:13:28.985Z,83.29
2023-03-12T08:15:57.219Z,83.42
2023-03-12T08:18:26.108Z,82.84
2023-03-12T08:20:54.859Z,82.02
2023-03-12T08:23:24.299Z,82.61
2023-03-12T08:25:53.601Z,83.61
2023-03-12T08:28:23.495Z,84.05
2023-03-12T08:30:56.064Z,84.39
2023-03-12T08:33:24.711Z,83.50
2023-03-12T08:35:53.104Z,82.83
2023-03-12T08:38:21.575Z,81.18
2023-03-12T08:40:58.542Z,80.02
2023-03-12T08:43:29.398Z,79.22
2023-03-12T08:46:02.674Z,79.24
2023-03-12T08:48:32.880Z,80.31
2023-03-12T08:51:04.366Z,79.31
2023-03-12T08:53:34.547Z,79.77
2023-03-12T08:56:03.693Z,78.89
2023-03-12T08:58:32.565Z,77.77
2023-03-12T09:03:43.500Z,76.47
2023-03-12T09:06:16.891Z,76.67
2023-03-12T09:08:46.356Z,76.50
2023-03-12T09:11:15.567Z,75.48
2023-03-12T09:14:16.847Z,72.97
2023-03-12T09:16:32.987Z,74.31
2023-03-12T09:19:01.340Z,75.15
2023-03-12T09:21:29.568Z,73.76
2023-03-12T09:23:57.927Z,72.57
2023-03-12T09:26:26.975Z,73.29
2023-03-12T09:28:55.335Z,73.72
2023-03-12T09:31:24.038Z,70.92
2023-03-12T09:33:52.877Z,70.79
2023-03-12T09:36:21.078Z,71.08
2023-03-12T09:38:49.244Z,72.39
2023-03-12T09:41:27.179Z,74.32
2023-03-12T09:44:02.006Z,74.55
2023-03-12T09:46:40.482Z,72.85
2023-03-12T09:49:19.760Z,71.14
2023-03-12T09:51:54.162Z,68.79
2023-03-12T09:54:38.605Z,66.80
2023-03-12T09:57:14.826Z,64.11
2023-03-12T09:59:44.108Z,64.05
2023-03-12T10:02:33.830Z,64.76
2023-03-12T10:05:12.080Z,63.47
2023-03-12T10:07:54.502Z,60.87
2023-03-12T10:10:37.080Z,61.97
2023-03-12T10:13:32.699Z,61.57
2023-03-12T10:16:22.223Z,59.31
2023-03-12T10:19:16.333Z,55.48
2023-03-12T10:21:53.423Z,55.38
2023-03-12T10:24:52.083Z,54.08
2023-03-12T10:27:22.924Z,53.39
2023-03-12T10:29:53.706Z,55.29
2023-03-12T10:32:42.480Z,54.49
2023-03-12T10:35:19.352Z,54.04
2023-03-12T10:37:55.230Z,50.98
2023-03-12T10:40:26.833Z,51.25
2023-03-12T10:42:55.725Z,48.23
2023-03-12T10:45:35.508Z,47.56
2023-03-12T10:48:09.868Z,47.29
2023-03-12T10:50:40.469Z,45.06
2023-03-12T10:53:22.859Z,44.52
2023-03-12T10:56:00.356Z,41.92
2023-03-12T10:58:34.186Z,41.98
2023-03-12T11:01:05.727Z,42.03
2023-03-12T11:03:34.291Z,41.84
2023-03-12T11:06:07.074Z,41.00
2023-03-12T11:08:37.519Z,42.74
2023-03-12T11:11:06.166Z,40.95
2023-03-12T11:13:41.903Z,38.83
2023-03-12T11:16:19.252Z,41.36
2023-03-12T11:19:05.245Z,41.52
2023-03-12T11:21:37.288Z,42.62
2023-03-12T11:24:13.306Z,43.12
2023-03-12T11:26:54.629Z,42.86
2023-03-12T11:29:33.365Z,42.88
2023-03-12T11:32:30.221Z,41.39
2023-03-12T11:34:59.674Z,41.20
2023-03-12T11:37:42.297Z,41.81
2023-03-12T11:40:21.277Z,42.07
2023-03-12T11:42:55.522Z,42.15
2023-03-12T11:45:32.116Z,41.91
2023-03-12T11:48:34.249Z,42.13
2023-03-12T11:51:14.776Z,43.47
2023-03-12T11:53:46.318Z,41.97
2023-03-12T11:56:14.706Z,41.57
2023-03-12T11:59:00.920Z,38.85
2023-03-12T12:01:56.498Z,39.05
2023-03-12T12:04:25.016Z,37.66
2023-03-12T12:07:13.593Z,37.74
2023-03-12T12:09:56.568Z,35.21
2023-03-12T12:12:41.449Z,35.50
2023-03-12T12:15:10.220Z,36.02
2023-03-12T12:17:51.268Z,37.74
2023-03-12T12:20:26.936Z,38.72
2023-03-12T12:23:23.014Z,38.54
2023-03-12T12:26:12.490Z,39.76
2023-03-12T12:28:55.274Z,39.37
2023-03-12T12:31:49.857Z,39.29
2023-03-12T12:34:32.869Z,36.73
2023-03-12T12:37:25.191Z,34.27
2023-03-12T12:40:10.746Z,35.67
2023-03-12T12:43:07.137Z,35.95
2023-03-12T12:45:41.195Z,36.01
2023-03-12T12:48:25.333Z,36.68
2023-03-12T12:50:54.302Z,35.80
2023-03-12T12:53:44.541Z,35.34
2023-03-12T12:56:22.487Z,36.56
2023-03-12T12:58:53.884Z,35.07
2023-03-12T13:01:22.274Z,34.40
2023-03-12T13:03:50.934Z,32.42
2023-03-12T13:06:19.113Z,32.43
2023-03-12T13:08:48.144Z,32.55
2023-03-12T13:11:20.458Z,32.58
2023-03-12T13:14:13.584Z,30.89
2023-03-12T13:16:44.577Z,30.10
2023-03-12T13:19:16.170Z,31.69
2023-03-12T13:21:59.343Z,29.62
2023-03-12T13:24:43.891Z,30.60
2023-03-12T13:27:19.167Z,31.41
2023-03-12T13:29:47.753Z,32.29
2023-03-12T13:32:34.652Z,30.31
2023-03-12T13:35:23.172Z,29.46
2023-03-12T13:37:51.330Z,29.80
2023-03-12T13:40:32.611Z,28.41
2023-03-12T13:43:14.259Z,28.71
2023-03-12T13:46:06.859Z,28.23
2023-03-12T13:48:36.519Z,29.48
2023-03-12T13:51:25.071Z,29.64
2023-03-12T13:53:58.264Z,29.14
2023-03-12T13:56:32.414Z,29.28
2023-03-12T13:59:03.834Z,28.83
2023-03-12T14:01:38.025Z,28.30
2023-03-12T14:04:12.674Z,29.12
2023-03-12T14:07:05.440Z,31.04
2023-03-12T14:09:57.696Z,31.67
2023-03-12T14:12:34.663Z,32.21
2023-03-12T14:15:21.290Z,31.77
2023-03-12T14:17:58.384Z,33.31
2023-03-12T14:20:28.436Z,33.32
2023-03-12T14:23:06.505Z,33.00
2023-03-12T14:25:46.728Z,33.39
2023-03-12T14:28:21.925Z,33.91
2023-03-12T14:31:01.481Z,33.76
2023-03-12T14:33:50.441Z,31.80
2023-03-12T14:36:22.937Z,32.21
2023-03-12T14:39:00.332Z,31.89
2023-03-12T14:41:38.452Z,31.20
2023-03-12T14:44:21.944Z,31.64
2023-03-12T14:47:10.242Z,32.22
2023-03-12T14:49:44.053Z,30.66
2023-03-12T14:52:13.494Z,30.10
2023-03-12T14:54:54.174Z,29.25
2023-03-12T14:57:24.787Z,29.42
2023-03-12T15:00:00.965Z,30.57
2023-03-12T15:02:31.806Z,32.60
2023-03-12T15:05:02.311Z,32.86
2023-03-12T15:07:39.636Z,33.45
2023-03-12T15:10:18.520Z,34.14
2023-03-12T15:12:47.288Z,34.73
2023-03-12T15:15:42.893Z,35.50
2023-03-12T15:18:18.815Z,36.59
2023-03-12T15:20:51.055Z,37.07
2023-03-12T15:23:21.592Z,37.54
2023-03-12T15:26:13.551Z,38.04
2023-03-12T15:28:43.149Z,38.45
2023-03-12T15:31:16.883Z,39.30
2023-03-12T15:33:45.470Z,39.71
2023-03-12T15:36:19.901Z,40.32
2023-03-12T15:38:55.726Z,40.74
2023-03-12T15:41:40.356Z,41.03
2023-03-12T15:44:23.992Z,41.35
2023-03-12T15:47:09.996Z,41.42
2023-03-12T15:49:39.318Z,41.82
2023-03-12T15:52:28.226Z,42.12
2023-03-12T15:55:24.475Z,41.97
2023-03-12T15:57:57.082Z,42.46
2023-03-12T16:00:30.436Z,42.39
2023-03-12T16:03:08.205Z,42.38
2023-03-12T16:05:39.742Z,42.61
2023-03-12T16:08:37.269Z,42.91
2023-03-12T16:11:15.463Z,43.02
2023-03-12T16:13:45.332Z,42.79
2023-03-12T16:16:14.907Z,43.43
2023-03-12T16:18:44.107Z,43.29
2023-03-12T16:21:12.488Z,43.50
2023-03-12T16:23:40.891Z,43.69
2023-03-12T16:26:09.223Z,43.82
2023-03-12T16:28:37.687Z,43.86
2023-03-12T16:31:12.395Z,44.03
2023-03-12T16:33:41.835Z,44.04
2023-03-12T16:36:14.074Z,44.11
2023-03-12T16:38:44.185Z,44.36
2023-03-12T16:41:15.689Z,44.29
2023-03-12T16:43:48.736Z,44.58
2023-03-12T16:46:19.967Z,45.29
2023-03-12T16:48:55.857Z,45.68
2023-03-12T16:51:24.135Z,45.64
2023-03-12T16:54:06.932Z,45.50
2023-03-12T16:56:37.490Z,45.65
2023-03-12T16:59:11.328Z,45.85
2023-03-12T17:01:39.676Z,46.00
2023-03-12T17:04:11.440Z,46.00
2023-03-12T17:06:41.456Z,46.22
2023-03-12T17:09:09.726Z,46.15
2023-03-12T17:11:38.206Z,47.06
2023-03-12T17:14:23.149Z,46.97
2023-03-12T17:16:52.798Z,46.90
2023-03-12T17:19:21.060Z,47.32
2023-03-12T17:21:50.063Z,47.65
2023-03-12T17:24:19.684Z,47.94
2023-03-12T17:26:53.565Z,48.16
2023-03-12T17:29:21.742Z,48.41
2023-03-12T17:31:50.228Z,49.13
2023-03-12T17:34:18.512Z,48.97
2023-03-12T17:36:46.941Z,49.41
2023-03-12T17:39:15.394Z,49.71
2023-03-12T17:41:43.682Z,49.69
2023-03-12T17:44:14.885Z,50.49
2023-03-12T17:46:56.600Z,50.42
2023-03-12T17:49:28.838Z,50.66
2023-03-12T17:51:57.584Z,50.99
2023-03-12T17:54:25.808Z,51.39
2023-03-12T17:56:54.245Z,51.48
2023-03-12T17:59:22.466Z,51.75
2023-03-12T18:01:51.101Z,51.20
2023-03-12T18:04:19.457Z,51.10
2023-03-12T18:06:47.945Z,52.28
2023-03-12T18:09:16.100Z,52.07
2023-03-12T18:11:44.271Z,52.11
2023-03-12T18:14:12.662Z,52.60
2023-03-12T18:16:40.919Z,53.18
2023-03-12T18:19:10.435Z,53.09
2023-03-12T18:21:38.795Z,53.54
2023-03-12T18:24:13.978Z,53.42
2023-03-12T18:26:42.880Z,53.01
2023-03-12T18:29:11.339Z,53.47
2023-03-12T18:31:39.786Z,53.69
2023-03-12T18:34:08.358Z,53.79
2023-03-12T18:36:36.687Z,54.40
2023-03-12T18:39:06.323Z,53.87
2023-03-12T18:41:35.059Z,54.35
2023-03-12T18:44:04.459Z,54.53
2023-03-12T18:46:33.436Z,55.02
2023-03-12T18:49:09.287Z,54.50
2023-03-12T18:51:38.238Z,55.20
2023-03-12T18:54:06.879Z,55.85
2023-03-12T18:56:38.229Z,55.94
2023-03-12T18:59:09.852Z,55.76
2023-03-12T19:01:39.480Z,56.06
2023-03-12T19:04:09.948Z,56.84
2023-03-12T19:06:50.269Z,56.07
2023-03-12T19:09:20.544Z,56.75
2023-03-12T19:11:49.518Z,56.11
2023-03-12T19:14:18.130Z,56.55
2023-03-12T19:16:46.956Z,55.91
2023-03-12T19:19:15.812Z,56.48
2023-03-12T19:21:44.388Z,56.32
2023-03-12T19:24:12.784Z,56.07
2023-03-12T19:26:42.531Z,56.13
2023-03-12T19:29:11.308Z,56.13
2023-03-12T19:31:39.742Z,55.98
2023-03-12T19:34:07.945Z,55.57
2023-03-12T19:36:36.082Z,56.13
2023-03-12T19:39:11.947Z,55.74
2023-03-12T19:41:47.273Z,56.55
2023-03-12T19:44:15.504Z,56.06
2023-03-12T19:46:43.819Z,55.81
2023-03-12T19:49:12.114Z,56.15
2023-03-12T19:51:41.406Z,56.63
2023-03-12T19:54:09.755Z,56.45
2023-03-12T19:56:38.242Z,56.64
2023-03-12T19:59:06.450Z,56.03
2023-03-12T20:01:34.948Z,56.62
2023-03-12T20:04:08.014Z,56.41
2023-03-12T20:06:36.237Z,56.65
2023-03-12T20:09:05.657Z,56.23
2023-03-12T20:11:35.837Z,56.40
2023-03-12T20:14:05.117Z,56.74
2023-03-12T20:16:33.524Z,56.00
2023-03-12T20:19:01.808Z,56.50
2023-03-12T20:21:30.821Z,56.19
2023-03-12T20:23:59.220Z,56.40
2023-03-12T20:26:27.537Z,56.53
2023-03-12T20:28:56.412Z,56.65
2023-03-12T20:31:24.604Z,56.77
2023-03-12T20:33:53.207Z,57.06
2023-03-12T20:36:21.652Z,56.57
2023-03-12T20:38:50.156Z,56.82
2023-03-12T20:41:18.396Z,57.03
2023-03-12T20:43:48.600Z,56.97
2023-03-12T20:46:19.420Z,57.10
2023-03-12T20:48:47.689Z,56.65
2023-03-12T20:51:16.091Z,57.41
2023-03-12T20:53:44.912Z,57.21
2023-03-12T20:56:13.573Z,57.02
2023-03-12T20:58:45.576Z,57.53
2023-03-12T21:01:16.688Z,56.94
2023-03-12T21:03:48.636Z,57.59
2023-03-12T21:06:16.985Z,57.60
2023-03-12T21:08:45.159Z,57.95
2023-03-12T21:11:13.666Z,57.50
2023-03-12T21:13:42.334Z,57.80
2023-03-12T21:16:11.839Z,57.78
2023-03-12T21:18:43.023Z,58.13
2023-03-12T21:21:14.220Z,57.76
2023-03-12T21:23:42.622Z,58.05
2023-03-12T21:26:11.770Z,57.72
2023-03-12T21:28:39.976Z,57.57
2023-03-12T21:31:12.481Z,57.97
2023-03-12T21:33:42.983Z,57.87
2023-03-12T21:36:14.288Z,58.16
2023-03-12T21:38:43.215Z,57.67
2023-03-12T21:41:14.897Z,57.90
2023-03-12T21:43:44.255Z,58.21
2023-03-12T21:46:19.121Z,58.56
2023-03-12T21:48:48.422Z,58.00
2023-03-12T21:51:18.036Z,58.08
2023-03-12T21:53:46.273Z,57.91
2023-03-12T21:56:14.408Z,58.57
2023-03-12T21:58:42.623Z,58.64
2023-03-12T22:01:17.358Z,58.80
2023-03-12T22:03:46.559Z,59.44
2023-03-12T22:06:16.119Z,58.90
2023-03-12T22:08:47.124Z,58.87
2023-03-12T22:11:16.225Z,59.11
2023-03-12T22:13:44.957Z,59.64
2023-03-12T22:16:14.477Z,59.18
2023-03-12T22:18:45.417Z,59.03
2023-03-12T22:21:21.773Z,58.95
2023-03-12T22:23:52.957Z,59.40
2023-03-12T22:26:23.096Z,59.25
2023-03-12T22:28:53.371Z,59.92
2023-03-12T22:31:23.120Z,59.63
2023-03-12T22:33:51.774Z,59.60
2023-03-12T22:36:21.020Z,60.50
2023-03-12T22:38:49.931Z,59.92
2023-03-12T22:41:18.342Z,60.38
2023-03-12T22:43:47.992Z,60.10
2023-03-12T22:46:18.651Z,59.98
2023-03-12T22:48:51.549Z,60.37
2023-03-12T22:51:19.794Z,60.23
2023-03-12T22:53:48.373Z,60.54
2023-03-12T22:56:18.139Z,61.02
2023-03-12T22:58:46.441Z,61.17
2023-03-12T23:01:20.355Z,61.21
2023-03-12T23:03:50.081Z,61.38
2023-03-12T23:06:23.846Z,61.29
2023-03-12T23:08:54.878Z,61.23
2023-03-12T23:11:25.573Z,61.89
2023-03-12T23:13:54.482Z,61.53
2023-03-12T23:16:25.638Z,61.80
2023-03-12T23:18:55.377Z,61.82
2023-03-12T23:21:24.695Z,61.88
2023-03-12T23:23:53.200Z,62.17
2023-03-12T23:26:24.576Z,61.99
2023-03-12T23:28:58.071Z,62.26
2023-03-12T23:31:28.678Z,63.02
2023-03-12T23:33:58.651Z,62.73
2023-03-12T23:36:28.959Z,62.64
2023-03-12T23:38:57.332Z,62.50
2023-03-12T23:41:29.562Z,62.77
2023-03-12T23:43:58.917Z,62.68
2023-03-12T23:46:27.598Z,62.68
2023-03-12T23:48:56.380Z,62.94
2023-03-12T23:51:30.164Z,63.54
2023-03-12T23:54:01.372Z,63.22
2023-03-12T23:56:37.853Z,63.84
2023-03-12T23:59:08.459Z,63.55
